createdAt,value
2022-09-02T00:02:13.609Z,100427.03
2022-09-02T00:04:41.760Z,100425.66
2022-09-02T00:07:11.211Z,100424.69
2022-09-02T00:09:40.802Z,100427.75
2022-09-02T00:12:11.307Z,100430.38
2022-09-02T00:14:39.858Z,100431.63
2022-09-02T00:17:07.926Z,100428.16
2022-09-02T00:19:36.186Z,100425.53
2022-09-02T00:22:04.709Z,100430.06
2022-09-02T00:24:34.157Z,100424.38
2022-09-02T00:27:02.041Z,100421.09
2022-09-02T00:29:30.899Z,100427.44
2022-09-02T00:31:59.375Z,100434.69
2022-09-02T00:34:27.580Z,100428.69
2022-09-02T00:36:55.873Z,100425.56
2022-09-02T00:39:23.912Z,100418.78
2022-09-02T00:41:54.094Z,100425.09
2022-09-02T00:44:22.623Z,100425.22
2022-09-02T00:46:51.655Z,100417.00
2022-09-02T00:49:25.098Z,100413.34
2022-09-02T00:51:57.831Z,100415.84
2022-09-02T00:54:28.567Z,100403.13
2022-09-02T00:56:58.355Z,100412.72
2022-09-02T00:59:31.460Z,100413.97
2022-09-02T01:01:59.973Z,100413.13
2022-09-02T01:04:29.274Z,100416.56
2022-09-02T01:06:57.210Z,100416.44
2022-09-02T01:09:25.107Z,100419.94
2022-09-02T01:11:53.502Z,100422.03
2022-09-02T01:14:24.120Z,100416.81
2022-09-02T01:17:00.624Z,100413.28
2022-09-02T01:19:33.531Z,100414.44
2022-09-02T01:22:03.510Z,100414.06
2022-09-02T01:24:34.693Z,100409.84
2022-09-02T01:27:02.695Z,100414.25
2022-09-02T01:29:31.131Z,100420.31
2022-09-02T01:32:00.445Z,100419.06
2022-09-02T01:34:29.174Z,100409.31
2022-09-02T01:36:57.118Z,100422.75
2022-09-02T01:39:27.120Z,100418.66
2022-09-02T01:41:55.759Z,100420.00
2022-09-02T01:44:27.553Z,100415.94
2022-09-02T01:46:55.916Z,100414.34
2022-09-02T01:49:24.616Z,100421.41
2022-09-02T01:51:55.809Z,100414.94
2022-09-02T01:54:26.157Z,100413.09
2022-09-02T01:56:54.412Z,100410.53
2022-09-02T01:59:24.334Z,100408.50
2022-09-02T02:01:52.826Z,100410.44
2022-09-02T02:04:22.824Z,100407.53
2022-09-02T02:06:53.473Z,100406.97
2022-09-02T02:09:22.844Z,100410.91
2022-09-02T02:11:54.389Z,100408.06
2022-09-02T02:14:22.873Z,100408.03
2022-09-02T02:16:52.674Z,100415.81
2022-09-02T02:19:21.008Z,100415.13
2022-09-02T02:21:49.940Z,100415.31
2022-09-02T02:24:18.243Z,100415.16
2022-09-02T02:26:46.659Z,100414.84
2022-09-02T02:29:16.662Z,100410.78
2022-09-02T02:31:45.801Z,100407.31
2022-09-02T02:34:14.830Z,100422.06
2022-09-02T02:36:43.724Z,100411.44
2022-09-02T02:39:13.398Z,100412.78
2022-09-02T02:41:44.875Z,100416.59
2022-09-02T02:44:14.258Z,100410.94
2022-09-02T02:46:44.829Z,100407.47
2022-09-02T02:49:14.303Z,100417.38
2022-09-02T02:51:43.370Z,100411.75
2022-09-02T02:54:14.388Z,100408.94
2022-09-02T02:56:42.646Z,100415.13
2022-09-02T02:59:10.549Z,100410.59
2022-09-02T03:01:39.233Z,100405.63
2022-09-02T03:04:08.803Z,100404.63
2022-09-02T03:06:36.824Z,100399.97
2022-09-02T03:09:06.438Z,100401.56
2022-09-02T03:11:36.826Z,100401.44
2022-09-02T03:14:06.927Z,100402.28
2022-09-02T03:16:36.621Z,100397.69
2022-09-02T03:19:05.384Z,100401.84
2022-09-02T03:21:38.816Z,100406.25
2022-09-02T03:24:08.438Z,100398.16
2022-09-02T03:26:36.779Z,100400.31
2022-09-02T03:29:05.777Z,100398.66
2022-09-02T03:31:34.997Z,100396.03
2022-09-02T03:34:04.161Z,100397.03
2022-09-02T03:36:38.642Z,100396.94
2022-09-02T03:39:09.923Z,100393.81
2022-09-02T03:41:38.408Z,100398.94
2022-09-02T03:44:06.576Z,100392.00
2022-09-02T03:46:35.215Z,100395.19
2022-09-02T03:49:05.046Z,100393.78
2022-09-02T03:51:34.767Z,100397.97
2022-09-02T03:54:03.993Z,100395.59
2022-09-02T03:56:32.441Z,100389.94
2022-09-02T03:59:00.310Z,100394.47
2022-09-02T04:01:35.046Z,100394.25
2022-09-02T04:04:05.875Z,100389.00
2022-09-02T04:06:38.858Z,100395.94
2022-09-02T04:09:07.927Z,100391.31
2022-09-02T04:11:37.191Z,100397.03
2022-09-02T04:14:05.661Z,100399.56
2022-09-02T04:16:35.180Z,100400.44
2022-09-02T04:19:09.438Z,100393.97
2022-09-02T04:21:41.575Z,100400.06
2022-09-02T04:24:12.389Z,100398.63
2022-09-02T04:26:45.134Z,100401.19
2022-09-02T04:29:17.001Z,100400.31
2022-09-02T04:31:49.480Z,100401.06
2022-09-02T04:34:17.670Z,100396.28
2022-09-02T04:36:48.397Z,100393.94
2022-09-02T04:39:17.150Z,100390.00
2022-09-02T04:41:45.521Z,100390.94
2022-09-02T04:44:15.262Z,100396.94
2022-09-02T04:46:48.082Z,100402.66
2022-09-02T04:49:20.328Z,100402.94
2022-09-02T04:51:54.152Z,100405.91
2022-09-02T04:54:23.431Z,100408.19
2022-09-02T04:56:52.079Z,100401.03
2022-09-02T04:59:22.151Z,100407.41
2022-09-02T05:02:01.887Z,100409.25
2022-09-02T05:04:32.164Z,100408.31
2022-09-02T05:07:02.528Z,100408.97
2022-09-02T05:09:34.384Z,100408.38
2022-09-02T05:12:06.168Z,100411.34
2022-09-02T05:14:44.642Z,100408.66
2022-09-02T05:17:14.386Z,100414.34
2022-09-02T05:19:45.693Z,100414.69
2022-09-02T05:22:19.771Z,100411.31
2022-09-02T05:24:48.751Z,100411.00
2022-09-02T05:27:17.409Z,100411.00
2022-09-02T05:29:47.154Z,100414.34
2022-09-02T05:32:18.221Z,100412.16
2022-09-02T05:34:49.006Z,100418.84
2022-09-02T05:37:19.640Z,100421.75
2022-09-02T05:39:49.280Z,100417.06
2022-09-02T05:42:20.422Z,100421.47
2022-09-02T05:44:50.479Z,100425.97
2022-09-02T05:47:21.338Z,100413.16
2022-09-02T05:49:49.965Z,100415.50
2022-09-02T05:52:20.923Z,100418.41
2022-09-02T05:54:51.950Z,100418.31
2022-09-02T05:57:23.290Z,100415.88
2022-09-02T05:59:57.399Z,100420.69
2022-09-02T06:02:42.281Z,100413.53
2022-09-02T06:05:18.640Z,100421.56
2022-09-02T06:07:54.065Z,100419.78
2022-09-02T06:10:23.853Z,100416.22
2022-09-02T06:12:52.369Z,100420.19
2022-09-02T06:15:23.595Z,100409.31
2022-09-02T06:17:51.752Z,100410.88
2022-09-02T06:20:20.261Z,100412.00
2022-09-02T06:22:49.842Z,100411.56
2022-09-02T06:25:21.092Z,100405.31
2022-09-02T06:27:50.118Z,100401.28
2022-09-02T06:30:19.154Z,100409.09
2022-09-02T06:32:50.620Z,100410.63
2022-09-02T06:35:21.215Z,100412.22
2022-09-02T06:37:49.903Z,100410.38
2022-09-02T06:40:19.662Z,100413.81
2022-09-02T06:42:51.284Z,100408.22
2022-09-02T06:45:31.724Z,100404.16
2022-09-02T06:48:04.029Z,100410.78
2022-09-02T06:50:41.146Z,100401.75
2022-09-02T06:53:11.685Z,100398.69
2022-09-02T06:55:43.581Z,100402.16
2022-09-02T06:58:14.375Z,100399.03
2022-09-02T07:00:44.028Z,100399.53
2022-09-02T07:03:31.022Z,100395.53
2022-09-02T07:06:09.380Z,100394.94
2022-09-02T07:08:41.346Z,100389.97
2022-09-02T07:11:19.191Z,100404.72
2022-09-02T07:13:49.845Z,100396.19
2022-09-02T07:16:26.745Z,100401.25
2022-09-02T07:18:55.484Z,100406.09
2022-09-02T07:21:23.560Z,100398.19
2022-09-02T07:23:52.199Z,100399.56
2022-09-02T07:26:20.679Z,100393.44
2022-09-02T07:28:54.873Z,100381.75
2022-09-02T07:31:24.781Z,100387.66
2022-09-02T07:33:56.492Z,100376.47
2022-09-02T07:36:25.258Z,100393.69
2022-09-02T07:38:55.134Z,100391.63
2022-09-02T07:41:25.682Z,100389.34
2022-09-02T07:43:59.713Z,100385.25
2022-09-02T07:46:31.561Z,100380.09
2022-09-02T07:48:59.923Z,100385.00
2022-09-02T07:51:30.949Z,100375.22
2022-09-02T07:54:02.047Z,100378.72
2022-09-02T07:56:30.585Z,100373.25
2022-09-02T07:59:01.350Z,100376.50
2022-09-02T08:01:30.622Z,100373.84
2022-09-02T08:04:01.515Z,100371.66
2022-09-02T08:06:35.344Z,100372.66
2022-09-02T08:09:04.916Z,100368.84
2022-09-02T08:11:38.992Z,100377.72
2022-09-02T08:14:10.834Z,100373.44
2022-09-02T08:16:40.088Z,100378.00
2022-09-02T08:19:09.226Z,100376.44
2022-09-02T08:21:37.583Z,100373.31
2022-09-02T08:24:05.873Z,100375.59
2022-09-02T08:26:37.378Z,100374.03
2022-09-02T08:29:05.426Z,100374.66
2022-09-02T08:31:40.443Z,100373.06
2022-09-02T08:34:08.939Z,100369.09
2022-09-02T08:36:37.330Z,100362.81
2022-09-02T08:39:06.478Z,100359.97
2022-09-02T08:41:43.276Z,100365.84
2022-09-02T08:44:13.773Z,100359.78
2022-09-02T08:46:44.414Z,100365.44
2022-09-02T08:49:19.310Z,100360.25
2022-09-02T08:51:53.175Z,100351.25
2022-09-02T08:54:27.305Z,100347.59
2022-09-02T08:56:56.541Z,100347.06
2022-09-02T08:59:26.662Z,100347.22
2022-09-02T09:02:06.902Z,100346.19
2022-09-02T09:04:54.710Z,100343.38
2022-09-02T09:07:33.773Z,100347.53
2022-09-02T09:10:10.655Z,100336.00
2022-09-02T09:13:14.212Z,100332.47
2022-09-02T09:15:49.420Z,100330.88
2022-09-02T09:18:22.066Z,100322.31
2022-09-02T09:20:50.626Z,100317.00
2022-09-02T09:23:29.687Z,100323.41
2022-09-02T09:26:08.817Z,100323.38
2022-09-02T09:28:43.623Z,100316.69
2022-09-02T09:31:14.819Z,100318.53
2022-09-02T09:34:02.085Z,100316.28
2022-09-02T09:36:51.657Z,100315.91
2022-09-02T09:39:22.713Z,100305.16
2022-09-02T09:41:52.220Z,100308.59
2022-09-02T09:44:48.266Z,100299.56
2022-09-02T09:47:19.766Z,100298.16
2022-09-02T09:52:25.700Z,100290.97
2022-09-02T09:55:20.955Z,100285.03
2022-09-02T09:57:53.905Z,100281.91
2022-09-02T10:00:28.035Z,100272.13
2022-09-02T10:02:59.607Z,100272.88
2022-09-02T10:05:44.991Z,100258.84
2022-09-02T10:08:21.902Z,100273.19
2022-09-02T10:10:59.102Z,100262.25
2022-09-02T10:13:30.380Z,100269.97
2022-09-02T10:16:15.074Z,100257.38
2022-09-02T10:18:49.785Z,100259.44
2022-09-02T10:21:36.069Z,100256.56
2022-09-02T10:24:13.913Z,100256.50
2022-09-02T10:26:49.279Z,100247.28
2022-09-02T10:29:40.179Z,100260.53
2022-09-02T10:32:26.594Z,100250.97
2022-09-02T10:35:06.224Z,100250.31
2022-09-02T10:37:42.736Z,100252.03
2022-09-02T10:40:15.035Z,100241.09
2022-09-02T10:43:03.859Z,100234.53
2022-09-02T10:45:37.149Z,100241.69
2022-09-02T10:48:22.779Z,100234.91
2022-09-02T10:50:56.685Z,100230.81
2022-09-02T10:53:44.707Z,100220.13
2022-09-02T10:56:18.356Z,100220.97
2022-09-02T10:58:55.379Z,100212.19
2022-09-02T11:01:26.942Z,100221.56
2022-09-02T11:04:02.722Z,100217.13
2022-09-02T11:07:01.965Z,100212.97
2022-09-02T11:09:37.496Z,100208.31
2022-09-02T11:12:10.987Z,100216.59
2022-09-02T11:14:49.842Z,100208.63
2022-09-02T11:17:23.186Z,100199.50
2022-09-02T11:19:56.661Z,100197.47
2022-09-02T11:22:29.807Z,100189.13
2022-09-02T11:25:04.511Z,100197.31
2022-09-02T11:27:42.601Z,100193.47
2022-09-02T11:30:14.986Z,100195.13
2022-09-02T11:32:48.256Z,100184.63
2022-09-02T11:35:27.607Z,100171.03
2022-09-02T11:38:00.925Z,100169.00
2022-09-02T11:40:38.810Z,100168.34
2022-09-02T11:43:30.913Z,100168.38
2022-09-02T11:46:14.632Z,100169.31
2022-09-02T11:49:03.912Z,100153.88
2022-09-02T11:51:53.559Z,100150.63
2022-09-02T11:54:23.113Z,100147.81
2022-09-02T11:56:58.956Z,100152.88
2022-09-02T12:00:00.360Z,100149.59
2022-09-02T12:02:36.223Z,100145.66
2022-09-02T12:05:42.024Z,100154.03
2022-09-02T12:08:13.405Z,100165.13
2022-09-02T12:11:04.789Z,100149.63
2022-09-02T12:13:38.231Z,100152.97
2022-09-02T12:16:38.915Z,100135.00
2022-09-02T12:19:41.554Z,100135.84
2022-09-02T12:22:28.379Z,100128.19
2022-09-02T12:24:57.784Z,100141.84
2022-09-02T12:27:28.646Z,100122.25
2022-09-02T12:29:59.301Z,100124.91
2022-09-02T12:33:01.823Z,100116.22
2022-09-02T12:35:53.444Z,100131.69
2022-09-02T12:38:30.508Z,100126.81
2022-09-02T12:41:22.019Z,100123.31
2022-09-02T12:44:13.506Z,100107.06
2022-09-02T12:46:55.986Z,100102.09
2022-09-02T12:49:36.939Z,100110.56
2022-09-02T12:52:06.824Z,100101.75
2022-09-02T12:54:47.729Z,100093.88
2022-09-02T12:57:17.280Z,100099.97
2022-09-02T12:59:46.797Z,100090.59
2022-09-02T13:02:30.308Z,100086.25
2022-09-02T13:05:15.968Z,100084.03
2022-09-02T13:08:23.489Z,100080.22
2022-09-02T13:11:29.054Z,100080.16
2022-09-02T13:14:32.146Z,100076.59
2022-09-02T13:17:37.098Z,100071.72
2022-09-02T13:20:40.446Z,100067.72
2022-09-02T13:23:44.789Z,100069.00
2022-09-02T13:26:52.862Z,100061.81
2022-09-02T13:30:07.854Z,100066.25
2022-09-02T13:32:36.602Z,100049.84
2022-09-02T13:35:08.648Z,100050.72
2022-09-02T13:37:39.971Z,100049.88
2022-09-02T13:40:19.694Z,100052.22
2022-09-02T13:42:52.965Z,100038.84
2022-09-02T13:45:23.390Z,100041.97
2022-09-02T13:47:54.563Z,100027.28
2022-09-02T13:50:24.645Z,100031.28
2022-09-02T13:53:45.727Z,100030.25
2022-09-02T13:55:51.768Z,100028.75
2022-09-02T13:58:32.651Z,100034.38
2022-09-02T14:01:19.839Z,100037.56
2022-09-02T14:03:51.774Z,100025.91
2022-09-02T14:06:23.517Z,100022.88
2022-09-02T14:08:56.929Z,100022.75
2022-09-02T14:11:25.895Z,100009.19
2022-09-02T14:13:55.037Z,99999.97
2022-09-02T14:16:33.527Z,100003.34
2022-09-02T14:19:06.042Z,99998.25
2022-09-02T14:21:35.755Z,100000.44
2022-09-02T14:24:06.082Z,99996.38
2022-09-02T14:26:37.605Z,99981.81
2022-09-02T14:29:07.766Z,99977.00
2022-09-02T14:31:38.016Z,99973.78
2022-09-02T14:34:26.045Z,99976.38
2022-09-02T14:36:53.962Z,99971.75
2022-09-02T14:39:23.339Z,99971.81
2022-09-02T14:41:53.578Z,99970.53
2022-09-02T14:44:26.805Z,99975.75
2022-09-02T14:46:58.102Z,99966.44
2022-09-02T14:49:29.449Z,99962.13
2022-09-02T14:51:59.834Z,99961.50
2022-09-02T14:54:40.879Z,99962.81
2022-09-02T14:57:23.277Z,99949.91
2022-09-02T14:59:52.455Z,99951.03
2022-09-02T15:02:25.871Z,99951.94
2022-09-02T15:04:54.138Z,99948.94
2022-09-02T15:07:22.601Z,99942.41
2022-09-02T15:09:53.843Z,99938.59
2022-09-02T15:12:25.882Z,99938.31
2022-09-02T15:14:55.146Z,99938.13
2022-09-02T15:17:24.448Z,99935.84
2022-09-02T15:19:52.970Z,99935.91
2022-09-02T15:22:22.525Z,99934.34
2022-09-02T15:24:51.869Z,99936.75
2022-09-02T15:27:21.587Z,99930.81
2022-09-02T15:29:51.450Z,99934.00
2022-09-02T15:32:21.553Z,99939.44
2022-09-02T15:34:49.460Z,99937.28
2022-09-02T15:37:17.370Z,99946.84
2022-09-02T15:39:45.756Z,99950.22
2022-09-02T15:42:15.425Z,99943.56
2022-09-02T15:44:43.350Z,99937.44
2022-09-02T15:47:11.256Z,99933.66
2022-09-02T15:49:39.395Z,99930.94
2022-09-02T15:52:07.999Z,99926.69
2022-09-02T15:54:36.408Z,99923.34
2022-09-02T15:57:04.333Z,99925.75
2022-09-02T15:59:33.716Z,99926.34
2022-09-02T16:02:02.334Z,99932.22
2022-09-02T16:04:30.316Z,99932.19
2022-09-02T16:06:58.519Z,99939.38
2022-09-02T16:09:26.388Z,99946.13
2022-09-02T16:11:56.213Z,99928.34
2022-09-02T16:14:25.787Z,99934.03
2022-09-02T16:16:57.340Z,99941.31
2022-09-02T16:19:30.279Z,99937.97
2022-09-02T16:21:58.817Z,99935.84
2022-09-02T16:24:26.891Z,99933.69
2022-09-02T16:26:54.774Z,99941.19
2022-09-02T16:29:24.078Z,99941.31
2022-09-02T16:32:07.840Z,99941.69
2022-09-02T16:34:45.338Z,99928.41
2022-09-02T16:37:13.272Z,99924.28
2022-09-02T16:39:42.128Z,99923.63
2022-09-02T16:42:10.134Z,99926.13
2022-09-02T16:44:38.286Z,99923.59
2022-09-02T16:47:07.282Z,99929.94
2022-09-02T16:49:35.477Z,99933.25
2022-09-02T16:52:05.063Z,99933.94
2022-09-02T16:54:36.273Z,99928.59
2022-09-02T16:57:08.704Z,99926.59
2022-09-02T16:59:36.670Z,99929.44
2022-09-02T17:02:04.738Z,99917.97
2022-09-02T17:04:32.719Z,99928.06
2022-09-02T17:07:01.515Z,99931.03
2022-09-02T17:09:31.322Z,99927.72
2022-09-02T17:11:59.396Z,99928.72
2022-09-02T17:14:27.721Z,99930.03
2022-09-02T17:16:56.553Z,99928.69
2022-09-02T17:19:28.620Z,99927.69
2022-09-02T17:22:00.540Z,99922.88
2022-09-02T17:24:30.865Z,99925.69
2022-09-02T17:27:00.555Z,99919.56
2022-09-02T17:32:19.025Z,99916.16
2022-09-02T17:34:47.716Z,99923.28
2022-09-02T17:37:16.096Z,99928.94
2022-09-02T17:39:46.875Z,99924.56
2022-09-02T17:42:15.414Z,99926.00
2022-09-02T17:44:44.004Z,99919.47
2022-09-02T17:47:15.043Z,99913.09
2022-09-02T17:49:44.486Z,99914.13
2022-09-02T17:52:15.704Z,99915.47
2022-09-02T17:54:47.637Z,99904.28
2022-09-02T17:57:28.308Z,99911.41
2022-09-02T18:00:08.005Z,99904.78
2022-09-02T18:03:13.934Z,99906.84
2022-09-02T18:06:05.947Z,99912.59
2022-09-02T18:08:40.154Z,99916.84
2022-09-02T18:11:09.451Z,99913.81
2022-09-02T18:13:47.619Z,99915.78
2022-09-02T18:16:27.528Z,99917.00
2022-09-02T18:19:19.496Z,99920.25
2022-09-02T18:22:06.249Z,99925.00
2022-09-02T18:24:52.841Z,99922.13
2022-09-02T18:27:31.226Z,99921.59
2022-09-02T18:30:07.151Z,99920.28
2022-09-02T18:33:03.476Z,99925.34
2022-09-02T18:35:40.885Z,99933.44
2022-09-02T18:38:20.009Z,99932.78
2022-09-02T18:40:54.537Z,99934.75
2022-09-02T18:43:32.559Z,99935.03
2022-09-02T18:46:02.892Z,99938.41
2022-09-02T18:48:33.960Z,99929.09
2022-09-02T18:51:06.965Z,99934.28
2022-09-02T18:53:40.727Z,99931.63
2022-09-02T18:56:11.531Z,99938.91
2022-09-02T18:58:46.887Z,99935.59
2022-09-02T19:01:21.467Z,99939.22
2022-09-02T19:03:49.694Z,99944.22
2022-09-02T19:06:20.732Z,99936.56
2022-09-02T19:08:55.832Z,99939.63
2022-09-02T19:11:26.079Z,99937.84
2022-09-02T19:13:57.454Z,99949.00
2022-09-02T19:16:27.961Z,99946.25
2022-09-02T19:19:00.077Z,99949.19
2022-09-02T19:21:36.107Z,99953.31
2022-09-02T19:24:08.970Z,99946.22
2022-09-02T19:26:39.251Z,99954.44
2022-09-02T19:29:11.691Z,99956.00
2022-09-02T19:31:41.956Z,99961.28
2022-09-02T19:34:11.502Z,99958.22
2022-09-02T19:36:43.282Z,99962.81
2022-09-02T19:39:11.233Z,99957.25
2022-09-02T19:41:39.469Z,99960.31
2022-09-02T19:44:10.006Z,99965.31
2022-09-02T19:49:28.407Z,99966.84
2022-09-02T19:51:57.679Z,99961.97
2022-09-02T19:54:26.527Z,99961.97
2022-09-02T19:56:54.468Z,99966.69
2022-09-02T19:59:24.359Z,99958.75
2022-09-02T20:01:52.325Z,99971.53
2022-09-02T20:04:20.534Z,99968.22
2022-09-02T20:06:48.487Z,99960.28
2022-09-02T20:09:17.831Z,99972.63
2022-09-02T20:11:46.065Z,99969.56
2022-09-02T20:14:13.854Z,99955.97
2022-09-02T20:16:44.180Z,99964.53
2022-09-02T20:19:13.038Z,99969.66
2022-09-02T20:21:45.617Z,99969.25
2022-09-02T20:24:19.525Z,99964.47
2022-09-02T20:26:59.016Z,99970.75
2022-09-02T20:29:38.234Z,99970.03
2022-09-02T20:32:19.735Z,99968.63
2022-09-02T20:34:57.769Z,99960.53
2022-09-02T20:37:36.613Z,99959.13
2022-09-02T20:40:17.878Z,99958.84
2022-09-02T20:43:04.780Z,99963.78
2022-09-02T20:45:39.516Z,99959.06
2022-09-02T20:48:27.437Z,99961.13
2022-09-02T20:51:04.860Z,99954.25
2022-09-02T20:53:49.684Z,99958.28
2022-09-02T20:56:24.321Z,99956.59
2022-09-02T20:59:03.001Z,99955.28
2022-09-02T21:01:37.543Z,99958.63
2022-09-02T21:04:28.257Z,99962.66
2022-09-02T21:07:02.167Z,99960.59
2022-09-02T21:09:39.632Z,99957.78
2022-09-02T21:12:27.588Z,99951.94
2022-09-02T21:15:01.750Z,99952.91
2022-09-02T21:17:40.367Z,99951.38
2022-09-02T21:20:17.682Z,99950.78
2022-09-02T21:22:52.624Z,99949.28
2022-09-02T21:25:26.488Z,99950.91
2022-09-02T21:28:04.914Z,99952.91
2022-09-02T21:30:40.864Z,99949.94
2022-09-02T21:33:12.576Z,99943.31
2022-09-02T21:35:43.877Z,99950.72
2022-09-02T21:38:16.231Z,99953.88
2022-09-02T21:41:03.326Z,99956.81
2022-09-02T21:43:55.918Z,99955.81
2022-09-02T21:46:33.855Z,99954.13
2022-09-02T21:49:10.754Z,99950.00
2022-09-02T21:51:49.733Z,99950.19
2022-09-02T21:54:37.165Z,99947.88
2022-09-02T21:57:25.776Z,99948.63
2022-09-02T22:00:01.014Z,99947.78
2022-09-02T22:02:42.547Z,99947.88
2022-09-02T22:05:20.783Z,99942.50
2022-09-02T22:07:57.974Z,99940.69
2022-09-02T22:10:33.653Z,99947.81
2022-09-02T22:13:03.430Z,99948.00
2022-09-02T22:15:44.975Z,99946.09
2022-09-02T22:18:20.960Z,99946.50
2022-09-02T22:20:53.901Z,99938.88
2022-09-02T22:23:26.369Z,99942.34
2022-09-02T22:25:56.569Z,99936.81
2022-09-02T22:28:31.236Z,99939.56
2022-09-02T22:31:05.703Z,99932.47
2022-09-02T22:33:40.421Z,99939.59
2022-09-02T22:36:18.673Z,99944.63
2022-09-02T22:38:50.076Z,99942.13
2022-09-02T22:41:25.080Z,99940.31
2022-09-02T22:43:59.159Z,99936.22
2022-09-02T22:46:50.585Z,99937.69
2022-09-02T22:49:44.042Z,99942.50
2022-09-02T22:52:44.838Z,99934.00
2022-09-02T22:55:17.430Z,99939.31
2022-09-02T22:57:56.979Z,99946.84
2022-09-02T23:00:26.574Z,99938.72
2022-09-02T23:03:07.995Z,99952.94
2022-09-02T23:05:50.567Z,99937.72
2022-09-02T23:08:21.322Z,99944.41
2022-09-02T23:10:57.000Z,99952.88
2022-09-02T23:13:44.879Z,99954.69
2022-09-02T23:16:23.469Z,99954.94
2022-09-02T23:19:05.686Z,99951.09
2022-09-02T23:21:45.222Z,99953.84
2022-09-02T23:24:25.390Z,99956.91
2022-09-02T23:27:04.718Z,99951.84
2022-09-02T23:29:35.628Z,99952.88
2022-09-02T23:32:20.849Z,99944.16
2022-09-02T23:35:12.525Z,99946.09
2022-09-02T23:37:55.817Z,99944.50
2022-09-02T23:40:30.800Z,99948.22
2022-09-02T23:43:00.549Z,99938.63
2022-09-02T23:45:31.256Z,99931.31
2022-09-02T23:48:29.195Z,99941.59
2022-09-02T23:51:13.145Z,99934.09
2022-09-02T23:53:51.279Z,99931.72
2022-09-02T23:56:33.426Z,99926.25
2022-09-02T23:59:22.178Z,99928.69
